Terminal Aerodrome Forecast
Issued by NWS

Home | Current Version | Previous Version | Text Only | Print | Product List | Glossary On
Versions: 1 2 3 4 5 6 7 8 9 10 11 12 13 14 15 16 17 18 19
000
FTUS41 KCAR 242320
TAFPQI
TAF
KPQI 242320Z 2500/2524 31005KT P6SM -RA BKN012 OVC025
     FM250400 VRB03KT 3SM -RASN OVC008
     FM251100 01005KT P6SM OVC008
     FM251500 35006KT P6SM OVC015
     FM251600 34006KT P6SM OVC025
      AMD LTD TO CLD VIS AND WIND=

USA.gov is the U.S. government's official web portal to all federal, state and local government web resources and services.